Main page
METAR-TAF:

METAR-TAF

Airports :

Genoa Cristoforo Colombo Airport

Genoa, Italy

latitude: 44-25N, longitude: 008-51E, elevation: 2 m

Current weather observation

The report was made 35 minutes ago, at 11:20 UTC
Wind 5 kt from the South, varying between South/Southeast and South/Southwest
Temperature 28°C
Humidity 62%
Pressure 1019 hPa
Visibility 10 km or more
no clouds below 1500 m and no cumulonimbus

METAR: LIMJ 191120Z 19005KT 150V210 CAVOK 28/20 Q1019

Time: 13:55 (11:55 UTC)

Forecast

The report was made 55 minutes ago, at 11:00 UTC
Forecast valid from 19 at 12 UTC to 20 at 12 UTC
Wind 5 kt from the North
Visibility 10 km or more
no clouds below 1500 m and no cumulonimbus

TAF: LIMJ 191100Z 1912/2012 01005KT CAVOK

Weather observations and forecasts of more than 4000 airports (METAR and TAF reports).

The available stations are represented by yellow and red dots on the map.

Hover mouse over dot to see the name of the station.

Then click to see weather observations and forecasts.

To change the map : click on the green buttons with a black cross to zoom in, on the green button with a dash to zoom out, or on the green arrows for adjacent maps.


METAR-TAF: